Time;durP1;ratioP1;P1;durP2;ratioP2;P2;SDS_P1;SDS_P2;PMS_P1;PMS_P2;Temp;Humidity;BMP_temperature;BMP_pressure;BME280_temperature;BME280_humidity;BME280_pressure;Samples;Min_cycle;Max_cycle;Signal;HPM_P1;HPM_P2
2023/04/03 17:11:50;;;;;;;23.93;11.27;;;;;;;43.14;31.63;100471.81;6076181;22;3378883;-82
2023/04/03 17:14:16;;;;;;;27.40;11.70;;;;;;;43.12;32.36;100468.63;6222167;23;20183;-81
2023/04/03 17:16:42;;;;;;;28.00;10.63;;;;;;;43.22;31.74;100471.97;6195983;23;20379;-83
2023/04/03 17:19:08;;;;;;;28.70;12.07;;;;;;;43.15;31.70;100473.38;6195920;23;20449;-81
2023/04/03 17:21:34;;;;;;;29.53;10.10;;;;;;;43.22;32.23;100486.44;6222247;23;20359;-82
2023/04/03 17:24:03;;;;;;;30.20;10.37;;;;;;;43.22;31.71;100493.81;6197060;23;20456;-81
2023/04/03 17:26:32;;;;;;;29.67;10.67;;;;;;;43.32;31.80;100485.09;6197075;23;20371;-82
2023/04/03 17:28:58;;;;;;;31.03;9.23;;;;;;;43.36;31.52;100484.06;6196654;23;20953;-84
2023/04/03 17:31:24;;;;;;;32.07;10.37;;;;;;;43.44;31.33;100479.56;6194417;23;20402;-83
2023/04/03 17:33:50;;;;;;;30.00;9.50;;;;;;;43.56;31.22;100484.94;6193951;23;20616;-82
2023/04/03 17:36:59;;;;;;;25.07;9.37;;;;;;;43.48;31.57;100485.94;6195881;23;20383;-91
2023/04/03 17:39:26;;;;;;;24.50;12.17;;;;;;;43.52;31.11;100496.91;6209566;23;20183;-81
2023/04/03 17:41:53;;;;;;;20.10;8.80;;;;;;;43.52;31.63;100494.19;6196479;23;20750;-81
2023/04/03 17:44:20;;;;;;;27.87;8.07;;;;;;;43.45;31.50;100517.44;6196429;23;20379;-83
2023/04/03 17:46:46;;;;;;;34.63;11.23;;;;;;;43.42;31.68;100520.91;6196402;23;20788;-82
2023/04/03 17:49:13;;;;;;;32.50;9.73;;;;;;;43.42;31.74;100520.09;6196577;23;20436;-82
2023/04/03 17:51:41;;;;;;;35.10;10.67;;;;;;;43.23;32.10;100515.31;6196185;23;20209;-82
2023/04/03 17:54:07;;;;;;;27.80;11.03;;;;;;;43.26;32.44;100519.28;6223153;23;20355;-83
2023/04/03 17:56:33;;;;;;;29.67;11.50;;;;;;;43.11;33.08;100526.31;6195788;23;20406;-85
2023/04/03 17:58:59;;;;;;;26.30;9.87;;;;;;;43.21;33.17;100525.78;6193146;23;20375;-84
2023/04/03 18:01:35;;;;;;;27.20;9.10;;;;;;;42.93;32.98;100525.81;6195875;23;20375;-84
2023/04/03 18:04:03;;;;;;;21.20;8.90;;;;;;;43.07;32.99;100519.97;6196553;23;20382;-82
2023/04/03 18:06:32;;;;;;;25.20;10.00;;;;;;;43.02;33.73;100525.66;6199219;23;20399;-80
2023/04/03 18:09:05;;;;;;;28.07;8.00;;;;;;;42.96;34.00;100530.56;6202640;23;20410;-84
2023/04/03 18:11:32;;;;;;;30.10;9.80;;;;;;;43.10;33.97;100533.72;6167196;23;20432;-86
2023/04/03 18:14:00;;;;;;;46.53;11.03;;;;;;;42.99;34.10;100534.56;6159224;23;20408;-83
2023/04/03 18:16:29;;;;;;;22.43;9.20;;;;;;;43.02;34.56;100526.47;6159413;23;20385;-83
2023/04/03 18:18:55;;;;;;;26.60;10.63;;;;;;;42.97;34.00;100531.34;6159326;23;20384;-84
2023/04/03 18:21:21;;;;;;;34.97;12.60;;;;;;;43.09;33.93;100531.31;6185943;23;20830;-82
2023/04/03 18:23:52;;;;;;;26.10;8.80;;;;;;;43.13;33.30;100535.72;6159356;23;20388;-82
2023/04/03 18:26:18;;;;;;;25.30;9.80;;;;;;;43.19;33.29;100526.13;6159205;23;20159;-83
2023/04/03 18:28:50;;;;;;;29.03;12.03;;;;;;;43.18;33.02;100538.22;6160003;23;20764;-84
2023/04/03 18:31:18;;;;;;;35.83;12.00;;;;;;;43.11;33.01;100548.16;6159622;23;20376;-87
2023/04/03 18:33:44;;;;;;;30.60;11.37;;;;;;;43.07;33.26;100556.22;6160839;23;20384;-84
2023/04/03 18:36:10;;;;;;;28.87;9.17;;;;;;;42.91;33.81;100558.91;6159148;23;20392;-81
2023/04/03 18:38:37;;;;;;;24.20;10.63;;;;;;;42.88;34.40;100562.31;6158474;23;20395;-83
2023/04/03 18:41:06;;;;;;;23.40;9.40;;;;;;;42.82;34.77;100568.38;6159142;23;20827;-87
2023/04/03 18:43:32;;;;;;;32.70;9.90;;;;;;;42.86;35.02;100578.25;6159872;23;20392;-83
2023/04/03 18:45:58;;;;;;;34.17;12.07;;;;;;;42.82;35.06;100582.03;6186303;23;20360;-82
2023/04/03 18:48:24;;;;;;;20.40;10.23;;;;;;;42.64;35.06;100587.75;6157305;23;20895;-87
2023/04/03 18:50:50;;;;;;;32.63;11.93;;;;;;;42.84;34.88;100579.72;6158811;23;20478;-86
2023/04/03 18:53:16;;;;;;;23.27;9.67;;;;;;;42.64;35.26;100579.56;6159365;23;20403;-85
2023/04/03 18:55:44;;;;;;;31.63;10.10;;;;;;;42.74;35.56;100591.16;6186315;23;20859;-87
2023/04/03 18:58:10;;;;;;;22.13;7.40;;;;;;;42.84;35.35;100596.88;6158412;23;20446;-87
2023/04/03 19:00:37;;;;;;;28.83;10.17;;;;;;;42.76;35.39;100599.78;6159464;23;20432;-83
2023/04/03 19:03:04;;;;;;;28.93;10.17;;;;;;;42.75;35.81;100606.38;6157631;23;20384;-85
2023/04/03 19:05:30;;;;;;;34.63;11.10;;;;;;;42.84;35.61;100605.06;6159292;23;20470;-87
2023/04/03 19:07:57;;;;;;;33.87;11.10;;;;;;;42.72;35.50;100616.03;6159041;23;20494;-87
2023/04/03 19:10:23;;;;;;;20.10;11.50;;;;;;;42.81;35.65;100615.91;6158467;23;20507;-85
2023/04/03 19:12:50;;;;;;;21.93;8.37;;;;;;;42.65;35.64;100613.09;6158901;23;20872;-85
2023/04/03 19:15:18;;;;;;;24.13;9.80;;;;;;;42.73;35.56;100617.66;6158998;23;20492;-88
2023/04/03 19:17:44;;;;;;;22.07;12.13;;;;;;;42.71;35.56;100633.53;6157497;23;20388;-83
2023/04/03 19:20:12;;;;;;;32.03;10.13;;;;;;;42.72;35.48;100631.59;6158545;23;20416;-85
2023/04/03 19:22:39;;;;;;;23.37;9.00;;;;;;;42.83;35.47;100641.69;6158651;23;20737;-85
2023/04/03 19:25:08;;;;;;;22.53;10.83;;;;;;;42.84;35.43;100651.47;6158598;23;20380;-84
2023/04/03 19:27:35;;;;;;;33.10;11.57;;;;;;;42.93;35.19;100671.22;6185588;23;20356;-84
2023/04/03 19:30:02;;;;;;;23.77;9.47;;;;;;;42.76;35.55;100681.63;6160078;23;20902;-85
2023/04/03 19:32:28;;;;;;;24.30;10.00;;;;;;;42.79;35.07;100681.75;6159363;23;20456;-83
2023/04/03 19:34:56;;;;;;;33.07;9.30;;;;;;;42.63;35.24;100694.47;6159072;23;20376;-84
2023/04/03 19:37:23;;;;;;;24.90;8.67;;;;;;;42.66;35.36;100701.97;6157975;23;20442;-85
2023/04/03 19:39:50;;;;;;;31.23;8.80;;;;;;;42.53;34.96;100711.28;6158282;23;20420;-84
2023/04/03 19:42:17;;;;;;;27.90;9.27;;;;;;;42.21;35.29;100711.06;6185438;23;20365;-85
2023/04/03 19:44:45;;;;;;;17.43;7.20;;;;;;;42.20;35.30;100714.91;6159455;23;20451;-85
2023/04/03 19:47:11;;;;;;;27.80;7.30;;;;;;;42.29;35.74;100728.44;6158840;23;20443;-85
2023/04/03 19:49:37;;;;;;;24.00;9.20;;;;;;;42.42;35.46;100719.13;6185856;23;20368;-83
2023/04/03 19:52:03;;;;;;;20.60;8.13;;;;;;;42.34;35.48;100725.47;6158733;23;20849;-84
2023/04/03 19:54:29;;;;;;;23.20;8.87;;;;;;;42.56;35.45;100732.41;6158808;23;20412;-84
2023/04/03 19:56:56;;;;;;;21.03;8.93;;;;;;;42.45;35.72;100740.25;6158478;23;20399;-85
2023/04/03 19:59:23;;;;;;;23.47;9.90;;;;;;;42.46;35.60;100746.50;6158684;23;20938;-85
2023/04/03 20:01:49;;;;;;;35.93;9.77;;;;;;;42.47;35.84;100737.97;6183234;23;20387;-85
2023/04/03 20:04:15;;;;;;;16.23;8.17;;;;;;;42.40;35.73;100733.09;6158715;23;20884;-86
2023/04/03 20:06:43;;;;;;;32.67;10.83;;;;;;;42.39;35.80;100744.34;6159470;23;20869;-85
2023/04/03 20:09:22;;;;;;;23.93;10.27;;;;;;;42.30;35.70;100755.38;6157346;23;20400;-84
2023/04/03 20:11:53;;;;;;;30.70;12.60;;;;;;;42.20;36.14;100766.72;6187102;23;20512;-85
2023/04/03 20:14:34;;;;;;;18.50;9.20;;;;;;;42.30;36.65;100770.94;6188152;23;20415;-87
2023/04/03 20:17:11;;;;;;;;;;;;;;;;;;;;;
2023/04/03 20:20:01;;;;;;;;;;;;;;;;;;;;;
2023/04/03 20:22:58;;;;;;;;;;;;;;;;;;;;;
2023/04/03 20:25:59;;;;;;;;;;;;;;;;;;;;;
2023/04/03 20:28:40;;;;;;;31.60;11.00;;;;;;;42.88;35.85;100794.25;6208858;23;20950;-87
2023/04/03 20:31:13;;;;;;;19.93;7.13;;;;;;;42.95;36.10;100796.41;6189275;23;20395;-83
2023/04/03 20:36:33;;;;;;;21.00;8.00;;;;;;;42.96;35.82;100799.94;6214111;23;20399;-87
2023/04/03 20:38:59;;;;;;;17.47;6.03;;;;;;;43.01;35.71;100803.25;6187879;23;20391;-84
2023/04/03 20:41:38;;;;;;;32.20;9.00;;;;;;;43.02;36.09;100804.03;6187779;23;20384;-84
2023/04/03 20:44:16;;;;;;;21.07;9.13;;;;;;;42.96;35.82;100805.38;6188262;23;20411;-87
2023/04/03 20:46:48;;;;;;;28.03;10.03;;;;;;;42.99;35.53;100805.53;6187749;23;20391;-84
2023/04/03 20:49:37;;;;;;;34.60;9.27;;;;;;;42.75;35.91;100795.41;6188689;23;20433;-85
2023/04/03 20:52:09;;;;;;;29.43;8.97;;;;;;;42.81;35.88;100804.16;6211771;23;20403;-85
2023/04/03 20:54:38;;;;;;;41.67;11.50;;;;;;;42.91;35.31;100809.16;6187211;23;20485;-84
2023/04/03 20:57:09;;;;;;;27.17;9.43;;;;;;;42.97;35.89;100815.16;6187989;23;20395;-87
2023/04/03 20:59:44;;;;;;;24.80;11.77;;;;;;;42.84;35.15;100815.16;6187740;23;20391;-83
2023/04/03 21:02:14;;;;;;;33.43;11.00;;;;;;;42.93;35.37;100821.31;6187973;23;20420;-85
